createdAt,value
2022-09-03T00:01:28.347Z,-25.7
2022-09-03T00:03:30.087Z,-25.7
2022-09-03T00:09:35.765Z,-25.7
2022-09-03T00:11:37.491Z,-25.7
2022-09-03T00:13:39.178Z,-25.7
2022-09-03T00:15:40.913Z,-25.9
2022-09-03T00:17:42.661Z,-25.8
2022-09-03T00:19:44.254Z,-26
2022-09-03T00:21:45.841Z,-25.8
2022-09-03T00:23:47.274Z,-25.7
2022-09-03T00:25:48.631Z,-25.7
2022-09-03T00:27:49.979Z,-25.8
2022-09-03T00:29:51.834Z,-25.7
2022-09-03T00:31:53.483Z,-25.9
2022-09-03T00:33:55.271Z,-25.7
2022-09-03T00:35:57.044Z,-25.5
2022-09-03T00:40:00.087Z,-25.6
2022-09-03T00:42:01.681Z,-25.9
2022-09-03T00:44:02.651Z,-25.7
2022-09-03T00:46:04.049Z,-25.8
2022-09-03T00:48:05.953Z,-25.7
2022-09-03T00:50:07.330Z,-26
2022-09-03T00:52:08.832Z,-25.9
2022-09-03T00:54:10.498Z,-25.6
2022-09-03T00:56:12.331Z,-25.7
2022-09-03T00:58:14.153Z,-25.7
2022-09-03T01:00:15.856Z,-25.8
2022-09-03T01:02:16.900Z,-25.6
2022-09-03T01:04:18.698Z,-25.7
2022-09-03T01:06:19.675Z,-25.5
2022-09-03T01:08:21.529Z,-25.6
2022-09-03T01:10:23.079Z,-25.7
2022-09-03T01:12:24.460Z,-25.7
2022-09-03T01:14:26.208Z,-25.7
2022-09-03T01:16:27.522Z,-25.5
2022-09-03T01:18:29.293Z,-25.7
2022-09-03T01:20:31.122Z,-26
2022-09-03T01:22:32.938Z,-25.6
2022-09-03T01:24:34.091Z,-25.8
2022-09-03T01:26:35.469Z,-25.8
2022-09-03T01:28:36.987Z,-25.7
2022-09-03T01:30:38.509Z,-25.9
2022-09-03T01:34:40.785Z,-25.8
2022-09-03T01:36:42.979Z,-26
2022-09-03T01:38:44.524Z,-25.7
2022-09-03T01:40:45.734Z,-26.1
2022-09-03T01:42:46.880Z,-25.8
2022-09-03T01:44:48.391Z,-25.9
2022-09-03T01:50:52.240Z,-25.7
2022-09-03T01:52:53.879Z,-25.8
2022-09-03T01:54:55.704Z,-25.8
2022-09-03T01:56:57.146Z,-25.7
2022-09-03T01:58:58.673Z,-25.8
2022-09-03T02:00:59.937Z,-25.9
2022-09-03T02:03:01.989Z,-25.9
2022-09-03T02:05:03.085Z,-25.9
2022-09-03T02:07:04.275Z,-25.6
2022-09-03T02:11:07.881Z,-25.6
2022-09-03T02:13:09.320Z,-25.7
2022-09-03T02:15:10.930Z,-25.7
2022-09-03T02:17:11.929Z,-25.8
2022-09-03T02:19:13.117Z,-25.6
2022-09-03T02:21:14.983Z,-25.8
2022-09-03T02:23:16.222Z,-25.6
2022-09-03T02:25:17.508Z,-25.7
2022-09-03T02:27:19.255Z,-25.7
2022-09-03T02:33:23.239Z,-25.8
2022-09-03T02:35:24.385Z,-25.9
2022-09-03T02:37:26.008Z,-25.7
2022-09-03T02:39:27.355Z,-25.9
2022-09-03T02:41:29.117Z,-26
2022-09-03T02:43:30.159Z,-26
2022-09-03T02:47:33.078Z,-25.7
2022-09-03T02:49:34.024Z,-25.7
2022-09-03T02:51:35.644Z,-25.8
2022-09-03T02:53:37.026Z,-25.7
2022-09-03T02:59:42.093Z,-25.9
2022-09-03T03:01:43.958Z,-25.8
2022-09-03T03:03:45.512Z,-25.7
2022-09-03T03:05:47.197Z,-25.8
2022-09-03T03:07:48.848Z,-25.9
2022-09-03T03:09:50.428Z,-25.7
2022-09-03T03:11:52.001Z,-25.7
2022-09-03T03:13:53.423Z,-25.8
2022-09-03T03:15:54.576Z,-25.7
2022-09-03T03:17:56.289Z,-25.9
2022-09-03T03:19:57.502Z,-25.8
2022-09-03T03:24:00.220Z,-25.5
2022-09-03T03:26:01.952Z,-25.9
2022-09-03T03:28:03.404Z,-25.6
2022-09-03T03:30:05.166Z,-25.6
2022-09-03T03:34:08.051Z,-26
2022-09-03T03:36:09.210Z,-25.9
2022-09-03T03:38:10.734Z,-25.8
2022-09-03T03:42:13.809Z,-25.8
2022-09-03T03:46:17.038Z,-25.7
2022-09-03T03:48:18.045Z,-26
2022-09-03T03:50:19.532Z,-26
2022-09-03T03:52:20.613Z,-26
2022-09-03T03:58:24.136Z,-25.7
2022-09-03T04:02:27.182Z,-25.8
2022-09-03T04:04:28.234Z,-25.7
2022-09-03T04:06:29.311Z,-25.6
2022-09-03T04:08:31.241Z,-25.7
2022-09-03T04:10:32.320Z,-25.9
2022-09-03T04:12:33.413Z,-25.8
2022-09-03T04:14:34.537Z,-25.8
2022-09-03T04:16:35.647Z,-25.8
2022-09-03T04:18:37.269Z,-25.8
2022-09-03T04:20:38.695Z,-25.7
2022-09-03T04:22:40.065Z,-25.8
2022-09-03T04:24:41.064Z,-25.5
2022-09-03T04:26:42.623Z,-25.9
2022-09-03T04:28:43.642Z,-25.9
2022-09-03T04:30:45.242Z,-25.8
2022-09-03T04:34:47.578Z,-25.8
2022-09-03T04:36:52.355Z,-25.9
2022-09-03T04:38:49.958Z,-25.8
2022-09-03T04:40:51.490Z,-26
2022-09-03T04:42:53.105Z,-25.8
2022-09-03T04:44:54.138Z,-25.7
2022-09-03T04:46:55.834Z,-25.7
2022-09-03T04:48:57.655Z,-25.7
2022-09-03T04:50:59.537Z,-25.8
2022-09-03T04:57:03.005Z,-25.8
2022-09-03T04:59:03.965Z,-25.7
2022-09-03T05:01:05.060Z,-25.8
2022-09-03T05:05:07.810Z,-25.9
2022-09-03T05:07:08.858Z,-25.9
2022-09-03T05:09:19.521Z,-25.9
2022-09-03T05:11:11.749Z,-25.7
2022-09-03T05:13:13.389Z,-25.8
2022-09-03T05:15:15.021Z,-26
2022-09-03T05:17:16.860Z,-26
2022-09-03T05:19:18.446Z,-25.8
2022-09-03T05:23:21.033Z,-25.9
2022-09-03T05:27:23.625Z,-25.8
2022-09-03T05:29:24.725Z,-25.8
2022-09-03T05:31:26.158Z,-25.8
2022-09-03T05:33:27.222Z,-25.7
2022-09-03T05:39:31.903Z,-25.8
2022-09-03T05:41:33.448Z,-25.7
2022-09-03T05:43:43.035Z,-25.7
2022-09-03T05:45:36.249Z,-25.7
2022-09-03T05:47:37.794Z,-25.6
2022-09-03T05:49:38.835Z,-25.9
2022-09-03T05:51:40.087Z,-25.6
2022-09-03T05:53:41.342Z,-22.1
2022-09-03T05:55:42.425Z,-17.4
2022-09-03T05:57:43.823Z,-15.9
2022-09-03T05:59:44.773Z,-8.1
2022-09-03T06:01:50.845Z,-8.7
2022-09-03T06:03:48.067Z,-9.6
2022-09-03T06:05:49.099Z,-4.1
2022-09-03T06:07:50.573Z,1.9
2022-09-03T06:09:52.109Z,7
2022-09-03T06:11:53.146Z,4.9
2022-09-03T06:15:55.794Z,5
2022-09-03T06:17:57.084Z,15.5
2022-09-03T06:19:58.154Z,11.6
2022-09-03T06:21:59.923Z,0.8
2022-09-03T06:23:09.942Z,-3.6
2022-09-03T06:25:11.704Z,-7
2022-09-03T06:27:12.831Z,-6.1
2022-09-03T06:29:14.266Z,-4.9
2022-09-03T06:31:15.634Z,-3
2022-09-03T06:33:17.099Z,0.6
2022-09-03T06:35:18.113Z,5.6
2022-09-03T06:37:19.147Z,9.7
2022-09-03T06:41:22.243Z,12.8
2022-09-03T06:43:23.957Z,7.8
2022-09-03T06:45:25.827Z,7.9
2022-09-03T06:47:27.005Z,10.2
2022-09-03T06:49:28.109Z,14.6
2022-09-03T06:51:29.521Z,23.6
2022-09-03T06:53:32.034Z,63.3
2022-09-03T06:55:31.546Z,78.3
2022-09-03T06:57:32.858Z,77.69
2022-09-03T06:59:34.625Z,76.1
2022-09-03T07:01:35.871Z,22.9
2022-09-03T07:03:37.075Z,17.6
2022-09-03T07:05:38.103Z,15.1
2022-09-03T07:07:39.465Z,13.2
2022-09-03T07:09:41.637Z,15.6
2022-09-03T07:11:42.420Z,13.7
2022-09-03T07:13:43.533Z,19.5
2022-09-03T07:15:44.900Z,25
2022-09-03T07:17:46.441Z,35.59
2022-09-03T07:19:47.887Z,48.9
2022-09-03T07:21:50.665Z,73
2022-09-03T07:25:52.313Z,70.3
2022-09-03T07:27:54.095Z,69.69
2022-09-03T07:29:55.450Z,68.69
2022-09-03T07:31:56.596Z,67.8
2022-09-03T07:33:58.369Z,67.1
2022-09-03T07:35:59.724Z,66.8
2022-09-03T07:42:03.508Z,15.8
2022-09-03T07:44:04.776Z,22.3
2022-09-03T07:46:06.115Z,31.2
2022-09-03T07:48:07.453Z,43
2022-09-03T07:50:09.249Z,60
2022-09-03T07:52:11.914Z,58.3
2022-09-03T07:54:13.546Z,56.8
2022-09-03T07:56:14.707Z,54.9
2022-09-03T07:58:16.339Z,53.3
2022-09-03T08:02:18.808Z,50.6
2022-09-03T08:04:19.857Z,48.8
2022-09-03T08:06:21.182Z,47.2
2022-09-03T08:08:22.992Z,45.1
2022-09-03T08:10:24.648Z,43.8
2022-09-03T08:12:26.310Z,42.6
2022-09-03T08:14:27.126Z,40.5
2022-09-03T08:16:28.762Z,39.4
2022-09-03T08:18:29.965Z,38.2
2022-09-03T08:24:33.886Z,33.09
2022-09-03T08:26:34.800Z,32.7
2022-09-03T08:28:35.893Z,31.2
2022-09-03T08:32:38.691Z,27.9
2022-09-03T08:34:39.798Z,25.2
2022-09-03T08:38:42.684Z,23.4
2022-09-03T08:40:43.583Z,21.8
2022-09-03T08:42:45.141Z,20.8
2022-09-03T08:44:46.564Z,19.29
2022-09-03T08:46:47.836Z,18.5
2022-09-03T08:50:49.699Z,16.2
2022-09-03T08:54:52.188Z,14.2
2022-09-03T08:56:53.378Z,12.1
2022-09-03T08:58:54.602Z,11.4
2022-09-03T09:00:56.022Z,13.2
2022-09-03T09:07:00.451Z,9.89
2022-09-03T09:09:01.291Z,10.4
2022-09-03T09:11:02.215Z,-25.7
2022-09-03T09:13:03.794Z,-25.6
2022-09-03T09:15:04.784Z,-25.4
2022-09-03T09:17:05.765Z,-25.7
2022-09-03T09:19:06.919Z,-25.8
2022-09-03T09:21:08.192Z,-25.4
2022-09-03T09:25:12.410Z,-25.5
2022-09-03T09:27:16.002Z,-25.8
2022-09-03T09:29:14.551Z,-25.4
2022-09-03T09:31:15.503Z,-25.7
2022-09-03T09:37:19.393Z,-25.7
2022-09-03T09:39:20.314Z,-25.4
2022-09-03T09:41:22.096Z,-25.8
2022-09-03T09:43:22.307Z,-25.8
2022-09-03T09:45:23.796Z,-25.4
2022-09-03T09:47:25.093Z,-25.4
2022-09-03T09:49:26.683Z,-25.6
2022-09-03T09:51:36.818Z,-25.7
2022-09-03T09:53:29.043Z,-25.8
2022-09-03T09:55:29.820Z,-25.6
2022-09-03T09:57:31.360Z,-25.5
2022-09-03T09:59:32.471Z,-25.7
2022-09-03T10:01:33.955Z,-25.7
2022-09-03T10:03:34.644Z,-25.5
2022-09-03T10:05:35.603Z,-25.6
2022-09-03T10:07:37.254Z,-25.6
2022-09-03T10:09:38.771Z,-25.8
2022-09-03T10:11:39.700Z,-25.7
2022-09-03T10:13:40.786Z,-25.3
2022-09-03T10:15:42.387Z,-25.8
2022-09-03T10:17:43.363Z,-25.5
2022-09-03T10:19:44.406Z,-25.6
2022-09-03T10:21:45.362Z,-25.7
2022-09-03T10:23:47.152Z,-26
2022-09-03T10:25:48.889Z,-25.6
2022-09-03T10:29:52.312Z,-25.7
2022-09-03T10:31:53.812Z,-25.6
2022-09-03T10:33:54.625Z,-25.7
2022-09-03T10:35:55.452Z,-25.7
2022-09-03T10:37:57.029Z,-25.5
2022-09-03T10:39:58.675Z,-25.6
2022-09-03T10:41:59.927Z,-25.8
2022-09-03T10:44:00.658Z,-25.7
2022-09-03T10:46:01.752Z,-25.7
2022-09-03T10:52:04.863Z,-25.7
2022-09-03T10:54:06.292Z,-25.7
2022-09-03T10:56:07.537Z,-25.8
2022-09-03T10:58:08.309Z,-25.5
2022-09-03T11:00:09.313Z,-25.6
2022-09-03T11:02:10.392Z,-25.6
2022-09-03T11:06:13.062Z,-25.9
2022-09-03T11:08:14.008Z,-25.9
2022-09-03T11:10:15.444Z,-25.5
2022-09-03T11:12:16.790Z,-25.7
2022-09-03T11:18:21.124Z,-25.7
2022-09-03T11:20:22.849Z,-25.5
2022-09-03T11:22:24.310Z,-25.7
2022-09-03T11:24:25.271Z,-25.9
2022-09-03T11:26:26.544Z,-25.7
2022-09-03T11:28:28.105Z,-25.7
2022-09-03T11:30:29.000Z,-25.9
2022-09-03T11:32:30.370Z,-25.5
2022-09-03T11:34:32.892Z,-25.7
2022-09-03T11:36:33.402Z,-25.7
2022-09-03T11:38:34.901Z,-25.7
2022-09-03T11:40:35.661Z,-25.5
2022-09-03T11:42:37.315Z,-25.6
2022-09-03T11:48:40.652Z,-25.6
2022-09-03T11:50:42.114Z,-25.6
2022-09-03T11:52:43.297Z,-25.8
2022-09-03T11:54:44.844Z,-25.7
2022-09-03T11:56:46.534Z,-25.7
2022-09-03T11:58:47.503Z,-25.6
2022-09-03T12:00:48.573Z,-25.5
2022-09-03T12:02:49.912Z,-25.5
2022-09-03T12:04:50.955Z,-25.8
2022-09-03T12:06:52.465Z,-25.8
2022-09-03T12:08:54.019Z,-25.8
2022-09-03T12:10:55.585Z,-25.6
2022-09-03T12:17:00.660Z,-25.8
2022-09-03T12:19:02.077Z,-25.7
2022-09-03T12:21:03.234Z,-25.7
2022-09-03T12:23:04.974Z,-25.7
2022-09-03T12:25:07.216Z,-25.5
2022-09-03T12:27:08.120Z,-25.6
2022-09-03T12:29:09.356Z,-25.9
2022-09-03T12:31:10.473Z,-25.4
2022-09-03T12:33:11.934Z,-25.5
2022-09-03T12:35:13.659Z,-25.5
2022-09-03T12:37:14.780Z,-25.8
2022-09-03T12:39:15.595Z,-25.8
2022-09-03T12:41:19.645Z,-25.4
2022-09-03T12:43:39.519Z,-25.6
2022-09-03T12:45:18.997Z,-25.9
2022-09-03T12:47:36.778Z,-25.7
2022-09-03T12:49:31.695Z,-25.7
2022-09-03T12:53:23.101Z,-25.8
2022-09-03T12:55:27.387Z,-25.6
2022-09-03T12:57:25.552Z,-25.7
2022-09-03T12:59:26.910Z,-25.6
2022-09-03T13:03:29.703Z,-25.9
2022-09-03T13:05:30.495Z,-25.8
2022-09-03T13:07:31.916Z,-25.7
2022-09-03T13:10:17.267Z,-25.9
2022-09-03T13:12:18.273Z,-25.5
2022-09-03T13:14:19.789Z,-25.4
2022-09-03T13:18:22.947Z,-25.5
2022-09-03T13:20:23.890Z,-25.7
2022-09-03T13:22:25.243Z,-25.8
2022-09-03T13:24:27.013Z,-25.4
2022-09-03T13:26:28.571Z,-25.6
2022-09-03T13:28:30.293Z,-25.6
2022-09-03T13:30:31.804Z,-25.4
2022-09-03T13:36:34.687Z,-25.5
2022-09-03T13:40:36.873Z,-25.5
2022-09-03T13:42:37.807Z,-25.5
2022-09-03T13:44:39.495Z,-25.6
2022-09-03T13:46:40.687Z,-25.6
2022-09-03T13:52:44.899Z,-25.7
2022-09-03T13:54:49.370Z,-25.7
2022-09-03T13:56:47.502Z,-25.7
2022-09-03T13:58:49.087Z,-25.7
2022-09-03T14:00:50.732Z,-25.8
2022-09-03T14:02:52.339Z,-25.8
2022-09-03T14:06:55.328Z,-25.8
2022-09-03T14:08:58.880Z,-25.9
2022-09-03T14:10:58.142Z,-25.7
2022-09-03T14:12:59.327Z,-25.5
2022-09-03T14:15:01.012Z,-25.6
2022-09-03T14:17:02.018Z,-25.7
2022-09-03T14:19:03.201Z,-25.6
2022-09-03T14:21:04.772Z,-25.9
2022-09-03T14:23:06.500Z,-26
2022-09-03T14:25:08.198Z,-25.6
2022-09-03T14:27:09.700Z,-25.9
2022-09-03T14:29:10.726Z,-25.5
2022-09-03T14:31:11.659Z,-25.6
2022-09-03T14:33:13.158Z,-25.7
2022-09-03T14:35:14.469Z,-25.8
2022-09-03T14:37:15.591Z,-25.6
2022-09-03T14:39:18.191Z,-25.5
2022-09-03T14:41:18.216Z,-25.5
2022-09-03T14:43:19.397Z,-25.8
2022-09-03T14:45:20.170Z,-25.7
2022-09-03T14:47:21.049Z,65.5
2022-09-03T14:49:22.057Z,13.6
2022-09-03T14:51:23.366Z,6.2
2022-09-03T14:53:24.527Z,3.1
2022-09-03T14:55:25.663Z,2.2
2022-09-03T14:57:26.739Z,-6.4
2022-09-03T14:59:27.898Z,-10.8
2022-09-03T15:01:29.562Z,-9.5
2022-09-03T15:05:31.383Z,-10.1
2022-09-03T15:07:33.140Z,-10.1
2022-09-03T15:09:34.661Z,-8
2022-09-03T15:11:35.738Z,-8.2
2022-09-03T15:17:40.187Z,-8.6
2022-09-03T15:19:41.550Z,-9
2022-09-03T15:21:43.065Z,-13.2
2022-09-03T15:23:44.819Z,-14
2022-09-03T15:25:45.973Z,-14.3
2022-09-03T15:27:47.635Z,-15.4
2022-09-03T15:29:49.111Z,-16.29
2022-09-03T15:31:50.970Z,-13.9
2022-09-03T15:33:51.974Z,-14.5
2022-09-03T15:35:53.065Z,-14.4
2022-09-03T15:37:54.456Z,-13.5
2022-09-03T15:39:55.582Z,-14.2
2022-09-03T15:41:56.446Z,-11.3
2022-09-03T15:43:57.890Z,-8.8
2022-09-03T15:45:59.012Z,-5.2
2022-09-03T15:48:00.025Z,6.8
2022-09-03T15:50:01.167Z,-9.3
2022-09-03T15:52:02.579Z,-10.8
2022-09-03T15:54:04.154Z,-16.1
2022-09-03T15:56:07.507Z,-18.2
2022-09-03T15:58:07.005Z,-20.29
2022-09-03T16:00:08.145Z,-21.6
2022-09-03T16:02:09.587Z,-23.5
2022-09-03T16:04:10.997Z,-24.4
2022-09-03T16:06:12.383Z,-24
2022-09-03T16:08:13.900Z,-25.4
2022-09-03T16:10:25.688Z,-25.3
2022-09-03T16:16:19.967Z,-25.8
2022-09-03T16:18:21.350Z,-25.9
2022-09-03T16:20:22.800Z,-25.6
2022-09-03T16:22:23.872Z,-25.6
2022-09-03T16:24:24.740Z,-25.5
2022-09-03T16:26:25.876Z,-26
2022-09-03T16:30:28.291Z,-25.7
2022-09-03T16:32:29.392Z,-25.9
2022-09-03T16:34:30.727Z,-25.9
2022-09-03T16:36:32.348Z,-25.8
2022-09-03T16:38:33.974Z,-25.9
2022-09-03T16:40:35.179Z,-25.5
2022-09-03T16:42:36.861Z,-25.8
2022-09-03T16:44:38.757Z,-25.4
2022-09-03T16:46:40.299Z,-25.7
2022-09-03T16:48:41.252Z,-25.6
2022-09-03T16:52:43.784Z,-25.8
2022-09-03T16:54:55.777Z,-25.7
2022-09-03T16:56:46.660Z,-25.8
2022-09-03T16:58:48.287Z,-25.9
2022-09-03T17:00:50.174Z,-25.7
2022-09-03T17:02:51.583Z,-25.7
2022-09-03T17:04:52.963Z,-25.8
2022-09-03T17:06:54.578Z,-26
2022-09-03T17:08:56.053Z,-25.7
2022-09-03T17:12:58.515Z,-25.7
2022-09-03T17:15:00.066Z,-25.7
2022-09-03T17:17:01.027Z,-25.5
2022-09-03T17:19:02.286Z,-25.8
2022-09-03T17:21:03.866Z,-25.8
2022-09-03T17:23:05.196Z,-25.7
2022-09-03T17:25:06.418Z,-25.8
2022-09-03T17:29:09.322Z,-25.5
2022-09-03T17:31:10.739Z,-25.7
2022-09-03T17:33:11.918Z,-25.8
2022-09-03T17:35:13.204Z,-25.9
2022-09-03T17:41:18.089Z,-25.7
2022-09-03T17:43:19.443Z,-25.7
2022-09-03T17:45:20.429Z,-25.7
2022-09-03T17:47:22.094Z,-25.9
2022-09-03T17:49:23.218Z,-25.9
2022-09-03T17:51:24.365Z,-25.9
2022-09-03T17:53:25.453Z,-25.8
2022-09-03T17:55:26.923Z,-26
2022-09-03T17:57:28.205Z,-25.9
2022-09-03T17:59:29.099Z,-25.8
2022-09-03T18:01:30.829Z,-25.9
2022-09-03T18:03:31.951Z,-25.8
2022-09-03T18:05:33.758Z,-26.1
2022-09-03T18:07:35.052Z,-26
2022-09-03T18:09:37.938Z,-25.8
2022-09-03T18:11:37.684Z,-26
2022-09-03T18:13:38.804Z,-25.7
2022-09-03T18:15:39.895Z,-25.8
2022-09-03T18:17:41.537Z,-25.6
2022-09-03T18:19:42.846Z,-25.6
2022-09-03T18:21:44.525Z,-26
2022-09-03T18:23:45.624Z,-26.1
2022-09-03T18:27:48.192Z,-26
2022-09-03T18:29:53.672Z,-26.4
2022-09-03T18:31:51.607Z,-26
2022-09-03T18:33:53.175Z,-26
2022-09-03T18:35:54.373Z,-26.2
2022-09-03T18:37:55.511Z,-26.2
2022-09-03T18:39:56.728Z,-26
2022-09-03T18:41:58.108Z,-26.2
2022-09-03T18:43:59.077Z,-26
2022-09-03T18:48:05.643Z,-26
2022-09-03T18:50:02.784Z,-26.1
2022-09-03T18:54:13.437Z,-25.9
2022-09-03T18:56:06.595Z,-25.9
2022-09-03T18:58:07.930Z,-25.9
2022-09-03T19:00:09.370Z,-26
2022-09-03T19:02:11.215Z,-26.2
2022-09-03T19:04:12.362Z,-26.2
2022-09-03T19:06:13.603Z,-26.1
2022-09-03T19:08:14.662Z,-26
2022-09-03T19:10:16.161Z,-26.1
2022-09-03T19:12:17.892Z,-26
2022-09-03T19:16:20.665Z,-26.1
2022-09-03T19:20:23.094Z,-25.8
2022-09-03T19:22:24.521Z,-25.8
2022-09-03T19:26:27.882Z,-25.8
2022-09-03T19:28:29.699Z,-25.9
2022-09-03T19:30:31.685Z,-26
2022-09-03T19:36:34.762Z,-25.8
2022-09-03T19:38:36.156Z,-26
2022-09-03T19:40:37.675Z,-25.7
2022-09-03T19:42:39.422Z,-25.8
2022-09-03T19:46:42.003Z,-25.5
2022-09-03T19:48:43.184Z,-25.9
2022-09-03T19:52:45.616Z,-25.8
2022-09-03T19:53:29.391Z,-25.6
2022-09-03T19:55:30.717Z,-25.9
2022-09-03T19:57:31.661Z,-26
2022-09-03T19:59:33.078Z,-26.1
2022-09-03T20:03:36.299Z,-25.8
2022-09-03T20:05:38.029Z,-25.9
2022-09-03T20:07:39.243Z,-25.8
2022-09-03T20:09:40.790Z,-26.1
2022-09-03T20:11:41.704Z,-25.9
2022-09-03T20:13:42.927Z,-25.7
2022-09-03T20:15:44.046Z,-26
2022-09-03T20:17:44.941Z,-25.7
2022-09-03T20:19:46.178Z,-26
2022-09-03T20:21:47.385Z,-26
2022-09-03T20:23:48.717Z,-26
2022-09-03T20:25:50.503Z,-26
2022-09-03T20:29:53.929Z,-26.1
2022-09-03T20:31:55.805Z,-25.8
2022-09-03T20:33:57.570Z,-26.1
2022-09-03T20:35:58.516Z,-25.9
2022-09-03T20:38:00.048Z,-25.9
2022-09-03T20:40:01.344Z,-25.8
2022-09-03T20:42:02.562Z,-25.9
2022-09-03T20:44:03.787Z,-26
2022-09-03T20:46:05.468Z,-25.8
2022-09-03T20:48:06.915Z,-25.8
2022-09-03T20:50:08.295Z,-25.7
2022-09-03T20:52:09.302Z,-26
2022-09-03T20:54:10.829Z,-25.7
2022-09-03T20:56:12.199Z,-25.8
2022-09-03T20:58:14.755Z,-26.1
2022-09-03T21:00:14.759Z,-25.7
2022-09-03T21:02:16.601Z,-26
2022-09-03T21:04:17.627Z,-26
2022-09-03T21:06:20.180Z,-26.1
2022-09-03T21:08:20.155Z,-26.1
2022-09-03T21:10:21.950Z,-25.7
2022-09-03T21:12:23.294Z,-25.8
2022-09-03T21:14:25.144Z,-25.9
2022-09-03T21:16:26.604Z,-25.8
2022-09-03T21:18:28.380Z,-25.9
2022-09-03T21:20:30.161Z,-26
2022-09-03T21:22:31.202Z,-25.8
2022-09-03T21:24:32.563Z,-26
2022-09-03T21:28:34.907Z,-25.8
2022-09-03T21:30:36.406Z,-25.7
2022-09-03T21:32:37.430Z,-25.9
2022-09-03T21:34:38.394Z,-25.9
2022-09-03T21:40:42.168Z,-25.7
2022-09-03T21:42:43.810Z,-25.7
2022-09-03T21:44:44.868Z,-26
2022-09-03T21:46:46.415Z,-25.9
2022-09-03T21:48:47.400Z,-25.6
2022-09-03T21:50:49.287Z,-25.7
2022-09-03T21:52:50.361Z,-25.9
2022-09-03T21:54:52.063Z,-25.7
2022-09-03T21:56:53.145Z,-25.9
2022-09-03T21:58:54.889Z,-25.9
2022-09-03T22:00:56.661Z,-25.8
2022-09-03T22:04:59.255Z,-25.6
2022-09-03T22:07:01.096Z,-25.9
2022-09-03T22:09:02.675Z,-25.8
2022-09-03T22:11:04.145Z,-25.9
2022-09-03T22:13:05.140Z,-25.8
2022-09-03T22:15:06.719Z,-25.6
2022-09-03T22:17:08.273Z,-25.9
2022-09-03T22:19:09.437Z,-25.7
2022-09-03T22:23:12.019Z,-25.9
2022-09-03T22:27:15.475Z,-25.8
2022-09-03T22:29:16.648Z,-25.7
2022-09-03T22:31:18.173Z,-25.8
2022-09-03T22:33:19.915Z,-25.6
2022-09-03T22:37:22.422Z,-25.8
2022-09-03T22:39:23.894Z,-25.6
2022-09-03T22:41:25.089Z,-25.7
2022-09-03T22:43:26.982Z,-26
2022-09-03T22:45:28.307Z,-25.9
2022-09-03T22:47:29.312Z,-25.6
2022-09-03T22:49:30.872Z,-26
2022-09-03T22:51:32.482Z,-25.8
2022-09-03T22:53:33.444Z,-26
2022-09-03T22:55:34.529Z,-25.8
2022-09-03T22:57:35.467Z,-25.8
2022-09-03T22:59:36.611Z,-25.8
2022-09-03T23:01:38.082Z,-26
2022-09-03T23:03:39.765Z,-25.6
2022-09-03T23:05:41.029Z,-25.9
2022-09-03T23:07:42.791Z,-25.8
2022-09-03T23:09:43.929Z,-25.7
2022-09-03T23:11:44.989Z,-26
2022-09-03T23:13:46.326Z,-25.8
2022-09-03T23:15:48.031Z,-25.8
2022-09-03T23:17:49.190Z,-25.7
2022-09-03T23:19:50.104Z,-25.5
2022-09-03T23:21:51.935Z,-25.9
2022-09-03T23:23:53.840Z,-25.6
2022-09-03T23:25:55.288Z,-25.6
2022-09-03T23:27:57.031Z,-25.9
2022-09-03T23:29:58.379Z,-25.7
2022-09-03T23:32:00.074Z,-25.6
2022-09-03T23:34:01.901Z,-25.5
2022-09-03T23:40:06.015Z,-25.8
2022-09-03T23:42:07.313Z,-25.6
2022-09-03T23:44:08.952Z,-25.6
2022-09-03T23:46:10.541Z,-25.7
2022-09-03T23:48:12.247Z,-25.7
2022-09-03T23:50:13.926Z,-25.6
2022-09-03T23:52:15.470Z,-25.8
2022-09-03T23:54:17.226Z,-25.7
2022-09-03T23:56:19.024Z,-25.9
2022-09-03T23:58:20.179Z,-25.9
